Time;durP1;ratioP1;P1;durP2;ratioP2;P2;SDS_P1;SDS_P2;PMS_P1;PMS_P2;Temp;Humidity;BMP_temperature;BMP_pressure;BME280_temperature;BME280_humidity;BME280_pressure;Samples;Min_cycle;Max_cycle;Signal;HPM_P1;HPM_P2
2021/12/05 00:24:03;;;;;;;51.60;25.95;;;3.70;99.90;;;;;;5047453;28;21191;-74
2021/12/05 00:26:30;;;;;;;44.70;26.13;;;3.70;99.90;;;;;;5052743;28;20045;-74
2021/12/05 00:29:09;;;;;;;39.08;23.05;;;3.80;99.90;;;;;;5062710;28;20394;-74
2021/12/05 00:31:54;;;;;;;37.17;24.17;;;3.80;99.90;;;;;;5051811;28;20087;-74
2021/12/05 00:57:55;;;;;;;45.03;21.77;;;3.70;99.90;;;;;;5060261;28;20394;-74
2021/12/05 01:00:53;;;;;;;31.65;18.33;;;3.70;99.90;;;;;;5048333;28;20390;-74
2021/12/05 01:16:20;;;;;;;32.75;20.02;;;3.50;99.90;;;;;;5046993;28;19921;-73
2021/12/05 01:18:46;;;;;;;40.00;19.55;;;3.50;99.90;;;;;;5049492;28;20121;-74
2021/12/05 01:21:16;;;;;;;30.27;19.10;;;3.50;99.90;;;;;;5049606;28;20074;-74
2021/12/05 01:24:00;;;;;;;34.72;19.08;;;3.50;99.90;;;;;;5048890;28;20102;-74
2021/12/05 01:29:36;;;;;;;42.47;19.90;;;3.60;99.90;;;;;;5051096;28;20537;-74
2021/12/05 01:32:38;;;;;;;36.28;19.55;;;3.60;99.90;;;;;;5053010;28;20076;-74
2021/12/05 02:15:37;;;;;;;39.08;18.23;;;3.80;99.90;;;;;;5040902;28;20122;-74
2021/12/05 02:42:10;;;;;;;40.00;20.35;;;3.90;99.90;;;;;;5037165;28;20049;-73
2021/12/05 02:44:37;;;;;;;34.13;18.92;;;4.00;99.90;;;;;;5048616;28;20045;-73
2021/12/05 02:47:10;;;;;;;32.47;19.70;;;4.00;99.90;;;;;;5040908;28;20091;-73
2021/12/05 02:49:39;;;;;;;43.10;21.13;;;4.00;99.90;;;;;;5047718;28;20053;-73
2021/12/05 02:52:09;;;;;;;41.42;22.42;;;4.00;99.90;;;;;;5047575;28;20053;-73
2021/12/05 02:54:42;;;;;;;44.75;23.05;;;4.00;99.90;;;;;;5048727;28;20045;-73
2021/12/05 02:57:09;;;;;;;44.17;23.83;;;4.00;99.90;;;;;;5049773;28;20048;-73
2021/12/05 03:02:16;;;;;;;62.22;25.88;;;4.00;99.90;;;;;;5038117;28;20182;-73
2021/12/05 03:04:45;;;;;;;62.47;25.33;;;4.00;99.90;;;;;;5046303;28;20041;-73
2021/12/05 03:07:13;;;;;;;43.67;25.63;;;4.00;99.90;;;;;;5049586;28;20041;-73
2021/12/05 03:09:42;;;;;;;47.28;26.13;;;4.00;99.90;;;;;;5058839;28;20453;-73
2021/12/05 03:12:10;;;;;;;;;;;4.00;99.90;;;;;;5061112;28;20044;-73
2021/12/05 03:14:36;;;;;;;46.88;28.00;;;3.90;99.90;;;;;;5053228;28;20360;-73
2021/12/05 03:17:02;;;;;;;57.20;30.27;;;3.90;99.90;;;;;;5055807;28;20045;-73
2021/12/05 03:19:28;;;;;;;53.03;28.17;;;3.90;99.90;;;;;;5049947;28;20834;-73
2021/12/05 03:21:54;;;;;;;48.38;27.98;;;4.00;99.90;;;;;;5052091;28;20044;-73
2021/12/05 03:24:22;;;;;;;62.05;32.50;;;4.10;99.90;;;;;;5066394;28;20044;-73
2021/12/05 03:26:52;;;;;;;53.70;33.38;;;4.00;99.90;;;;;;5074053;28;20552;-73
2021/12/05 03:29:20;;;;;;;58.70;33.60;;;4.00;99.90;;;;;;5059182;28;20189;-73
2021/12/05 03:31:46;;;;;;;60.97;35.85;;;4.00;99.90;;;;;;5033924;28;20049;-73
2021/12/05 03:34:16;;;;;;;67.20;34.33;;;4.00;99.90;;;;;;5054810;28;20112;-73
2021/12/05 03:36:47;;;;;;;58.00;34.92;;;4.00;99.90;;;;;;5050754;28;20044;-73
2021/12/05 03:39:13;;;;;;;61.35;34.50;;;4.00;99.90;;;;;;5053394;28;20136;-73
2021/12/05 03:41:40;;;;;;;70.63;39.47;;;4.00;99.90;;;;;;5055666;28;20535;-74
2021/12/05 03:44:08;;;;;;;64.85;35.95;;;4.00;99.90;;;;;;5063268;28;20514;-73
2021/12/05 03:46:35;;;;;;;72.47;35.30;;;4.00;99.90;;;;;;5052985;28;20049;-73
2021/12/05 03:49:08;;;;;;;51.05;32.08;;;4.00;99.90;;;;;;5038584;28;20049;-73
2021/12/05 03:51:41;;;;;;;53.30;32.95;;;4.00;99.90;;;;;;5057689;28;20096;-73
2021/12/05 03:54:07;;;;;;;63.45;36.75;;;4.00;99.90;;;;;;5051899;28;20101;-73
2021/12/05 03:56:34;;;;;;;59.28;32.42;;;3.90;99.90;;;;;;5053850;28;20036;-73
2021/12/05 03:59:02;;;;;;;53.20;32.17;;;4.00;99.90;;;;;;5049738;28;20057;-73
2021/12/05 04:01:28;;;;;;;73.57;33.80;;;3.90;99.90;;;;;;5055121;28;20536;-73
2021/12/05 04:03:54;;;;;;;58.60;32.90;;;3.90;99.90;;;;;;5058492;28;20106;-73
2021/12/05 04:06:21;;;;;;;55.38;32.72;;;3.90;99.90;;;;;;5050781;28;20052;-74
2021/12/05 04:08:49;;;;;;;52.03;31.77;;;3.90;99.90;;;;;;5038102;28;20041;-73
2021/12/05 04:11:22;;;;;;;59.20;30.70;;;3.90;99.90;;;;;;5048776;28;20048;-73
2021/12/05 04:13:47;;;;;;;54.28;30.95;;;3.80;99.90;;;;;;5053052;28;20059;-73
2021/12/05 04:16:14;;;;;;;55.45;32.05;;;3.80;99.90;;;;;;5051084;28;20044;-73
2021/12/05 04:18:41;;;;;;;50.67;31.80;;;3.80;99.90;;;;;;5047179;28;20057;-73
2021/12/05 04:21:07;;;;;;;56.60;31.42;;;3.80;99.90;;;;;;5065967;28;20526;-73
2021/12/05 04:23:34;;;;;;;49.28;29.67;;;3.80;99.90;;;;;;5051185;28;20076;-73
2021/12/05 04:26:01;;;;;;;50.75;29.08;;;3.80;99.90;;;;;;5049012;28;20040;-74
2021/12/05 04:28:28;;;;;;;44.70;28.40;;;3.80;99.90;;;;;;5054698;28;20052;-73
2021/12/05 04:30:53;;;;;;;45.80;26.80;;;3.70;99.90;;;;;;5052430;28;20048;-73
2021/12/05 04:33:19;;;;;;;46.08;26.65;;;3.70;99.90;;;;;;5061603;28;20448;-73
2021/12/05 04:35:47;;;;;;;60.13;30.23;;;3.70;99.90;;;;;;5056230;28;20102;-73
2021/12/05 04:38:13;;;;;;;41.27;26.30;;;3.70;99.90;;;;;;5058682;28;20049;-74
2021/12/05 04:40:39;;;;;;;59.05;28.23;;;3.60;99.90;;;;;;5062451;28;20048;-74
2021/12/05 04:43:05;;;;;;;42.47;26.15;;;3.70;99.90;;;;;;5052835;28;20045;-74
2021/12/05 04:45:33;;;;;;;45.10;27.75;;;3.60;99.90;;;;;;5053562;28;20043;-74
2021/12/05 04:48:01;;;;;;;60.30;27.52;;;3.70;99.90;;;;;;5050519;28;20053;-74
2021/12/05 04:50:28;;;;;;;44.67;25.47;;;3.60;99.90;;;;;;5052648;28;20510;-73
2021/12/05 04:52:55;;;;;;;42.03;24.50;;;3.60;99.90;;;;;;5051797;28;20463;-74
2021/12/05 04:55:21;;;;;;;59.55;26.58;;;3.60;99.90;;;;;;5053715;28;20044;-74
2021/12/05 04:57:48;;;;;;;42.85;24.48;;;3.60;99.90;;;;;;5059506;28;20135;-74
2021/12/05 05:00:37;;;;;;;46.67;23.88;;;3.60;99.90;;;;;;5060108;28;20117;-74
2021/12/05 05:03:04;;;;;;;43.80;22.45;;;3.60;99.90;;;;;;5050186;28;20044;-74
2021/12/05 05:05:31;;;;;;;34.88;22.67;;;3.60;99.90;;;;;;5064475;28;20059;-74
2021/12/05 05:07:57;;;;;;;39.53;23.95;;;3.50;99.90;;;;;;5052666;28;20051;-73
2021/12/05 05:10:26;;;;;;;43.97;22.15;;;3.50;99.90;;;;;;5050174;28;20128;-74
2021/12/05 05:12:52;;;;;;;46.10;22.67;;;3.50;99.90;;;;;;5061543;28;20049;-74
2021/12/05 05:15:22;;;;;;;41.28;21.52;;;3.50;99.90;;;;;;5044062;28;20576;-74
2021/12/05 05:17:50;;;;;;;43.05;21.55;;;3.50;99.90;;;;;;5042491;28;20044;-74
2021/12/05 05:20:22;;;;;;;42.70;22.33;;;3.50;99.90;;;;;;5060495;28;20060;-74
2021/12/05 05:28:20;;;;;;;37.42;19.75;;;3.50;99.90;;;;;;5046804;28;20049;-74
2021/12/05 05:30:56;;;;;;;43.63;20.88;;;3.50;99.90;;;;;;5050774;28;20053;-74
2021/12/05 05:42:04;;;;;;;42.67;18.67;;;3.50;99.90;;;;;;5046813;28;20048;-74
2021/12/05 05:51:59;;;;;;;37.08;18.40;;;3.40;99.90;;;;;;5052310;28;20045;-74
2021/12/05 05:54:26;;;;;;;36.22;19.17;;;3.40;99.90;;;;;;5051286;28;20078;-74
2021/12/05 05:56:57;;;;;;;50.65;20.42;;;3.40;99.90;;;;;;5058725;28;20114;-74
2021/12/05 05:59:27;;;;;;;34.40;18.02;;;3.40;99.90;;;;;;5047158;28;20044;-74
2021/12/05 06:04:22;;;;;;;34.92;16.58;;;3.40;99.90;;;;;;5060716;28;20049;-74
2021/12/05 06:06:48;;;;;;;34.88;16.92;;;3.30;99.90;;;;;;5052365;28;20099;-74
2021/12/05 06:09:13;;;;;;;29.80;16.38;;;3.30;99.90;;;;;;5060563;28;20756;-74
2021/12/05 06:11:39;;;;;;;52.85;19.80;;;3.30;99.90;;;;;;5047982;28;20512;-74
2021/12/05 06:14:05;;;;;;;34.58;17.60;;;3.30;99.90;;;;;;5047621;28;20047;-74
2021/12/05 06:16:31;;;;;;;35.35;18.25;;;3.30;99.90;;;;;;5064335;28;20118;-74
2021/12/05 06:18:56;;;;;;;38.97;18.63;;;3.30;99.90;;;;;;5050048;28;20057;-74
2021/12/05 06:21:22;;;;;;;38.78;18.25;;;3.30;99.90;;;;;;5061254;28;20529;-74
2021/12/05 06:23:48;;;;;;;40.80;18.42;;;3.30;99.90;;;;;;5056124;28;20051;-74
2021/12/05 06:26:21;;;;;;;34.58;15.82;;;3.30;99.90;;;;;;5054145;28;20690;-74
2021/12/05 06:29:02;;;;;;;35.28;17.10;;;3.30;99.90;;;;;;5044225;28;20063;-74
2021/12/05 06:39:59;;;;;;;32.50;16.65;;;3.30;99.90;;;;;;5054313;28;20490;-74
2021/12/05 06:47:55;;;;;;;33.35;17.05;;;3.30;99.90;;;;;;5051951;28;20056;-74
2021/12/05 06:50:20;;;;;;;36.13;17.67;;;3.30;99.90;;;;;;5040418;28;20534;-74
2021/12/05 06:52:46;;;;;;;30.88;17.67;;;3.40;99.90;;;;;;5063782;28;20044;-74
2021/12/05 06:55:14;;;;;;;52.75;18.50;;;3.40;99.90;;;;;;5052273;28;20052;-74
2021/12/05 06:57:40;;;;;;;34.83;17.17;;;3.40;99.90;;;;;;5054496;28;20099;-74
2021/12/05 07:00:11;;;;;;;37.22;18.38;;;3.40;99.90;;;;;;5064879;28;20385;-74
2021/12/05 07:02:37;;;;;;;43.83;19.27;;;3.40;99.90;;;;;;5056258;28;20490;-74
2021/12/05 07:07:49;;;;;;;35.88;17.73;;;3.40;99.90;;;;;;5064199;28;20106;-74
2021/12/05 07:10:17;;;;;;;38.85;19.27;;;3.40;99.90;;;;;;5052328;28;20424;-74
2021/12/05 07:13:56;;;;;;;47.35;18.75;;;3.40;99.90;;;;;;5043532;28;20045;-74
2021/12/05 07:15:39;;;;;;;39.40;18.48;;;3.40;99.90;;;;;;5054831;28;20074;-74
2021/12/05 07:23:46;;;;;;;37.45;19.65;;;3.50;99.90;;;;;;5050503;28;20045;-74
2021/12/05 07:42:41;;;;;;;40.58;20.60;;;3.60;99.90;;;;;;5056592;28;20053;-74
2021/12/05 07:45:14;;;;;;;59.78;21.75;;;3.60;99.90;;;;;;5064265;28;20578;-74
2021/12/05 07:47:44;;;;;;;47.30;21.25;;;3.60;99.90;;;;;;5052589;28;20049;-74
2021/12/05 07:50:11;;;;;;;50.05;20.00;;;3.60;99.90;;;;;;5046650;28;20055;-73
2021/12/05 07:52:41;;;;;;;51.45;23.65;;;3.60;99.90;;;;;;5046407;28;20056;-74
2021/12/05 07:55:18;;;;;;;45.83;24.13;;;3.70;99.90;;;;;;5043759;28;20049;-74
2021/12/05 08:14:38;;;;;;;50.47;22.80;;;3.80;99.90;;;;;;5050300;28;20067;-74
2021/12/05 08:17:06;;;;;;;43.70;22.55;;;3.90;99.90;;;;;;5057057;28;20137;-74
2021/12/05 08:19:32;;;;;;;40.33;21.63;;;3.90;99.90;;;;;;5059612;28;20059;-74
2021/12/05 08:21:58;;;;;;;45.90;21.83;;;3.90;99.90;;;;;;5063282;28;20048;-74
2021/12/05 08:24:25;;;;;;;54.88;24.65;;;4.00;99.90;;;;;;5053703;28;20049;-74
2021/12/05 08:26:52;;;;;;;41.15;22.00;;;4.00;99.90;;;;;;5051257;28;20128;-74
2021/12/05 08:29:27;;;;;;;37.15;20.83;;;4.00;99.90;;;;;;5056232;28;20044;-74
2021/12/05 08:34:44;;;;;;;36.45;20.80;;;4.00;99.90;;;;;;5066769;28;20075;-74
2021/12/05 09:08:51;;;;;;;35.78;20.63;;;4.10;99.90;;;;;;5058232;28;20056;-74
2021/12/05 09:24:01;;;;;;;40.28;22.33;;;4.30;99.90;;;;;;5046153;28;20060;-74
2021/12/05 09:26:46;;;;;;;36.72;21.42;;;4.40;99.90;;;;;;5049000;28;20498;-74
2021/12/05 10:07:40;;;;;;;45.72;21.33;;;4.80;99.90;;;;;;5054653;28;20063;-74
2021/12/05 10:12:44;;;;;;;33.50;20.33;;;4.80;99.90;;;;;;5044176;28;20060;-74
2021/12/05 10:37:49;;;;;;;35.30;20.00;;;4.90;99.90;;;;;;5048072;28;20088;-75
2021/12/05 10:40:21;;;;;;;37.97;19.73;;;5.00;99.90;;;;;;5045961;28;20561;-74
2021/12/05 10:42:51;;;;;;;35.78;19.23;;;5.00;99.90;;;;;;5029009;28;20094;-74
2021/12/05 10:45:19;;;;;;;39.88;19.70;;;5.00;99.90;;;;;;5046119;28;20102;-74
2021/12/05 10:47:46;;;;;;;;;;;5.00;99.90;;;;;;5046530;28;20079;-75
2021/12/05 10:50:33;;;;;;;34.58;19.10;;;5.00;99.90;;;;;;5046980;28;20599;-75
2021/12/05 10:53:23;;;;;;;30.60;18.05;;;5.10;99.90;;;;;;5042055;28;20413;-74
2021/12/05 10:55:57;;;;;;;25.83;15.85;;;5.00;99.90;;;;;;5054339;28;20056;-75
2021/12/05 10:58:28;;;;;;;34.90;17.77;;;5.10;99.90;;;;;;5040386;28;20052;-75
2021/12/05 11:01:20;;;;;;;30.13;17.80;;;5.00;99.90;;;;;;5047596;28;20528;-75
2021/12/05 11:03:49;;;;;;;31.23;17.33;;;5.00;99.90;;;;;;5042353;28;20102;-75
2021/12/05 11:06:33;;;;;;;27.45;15.93;;;5.00;99.90;;;;;;5045422;28;20045;-75
2021/12/05 11:09:14;;;;;;;35.05;15.60;;;5.00;99.90;;;;;;5046164;28;20048;-75
2021/12/05 11:11:43;;;;;;;25.40;17.13;;;5.00;99.90;;;;;;5047779;28;20053;-74
2021/12/05 11:14:15;;;;;;;26.75;16.00;;;5.00;99.90;;;;;;5046772;28;20510;-75
2021/12/05 11:16:52;;;;;;;23.25;14.82;;;5.00;99.90;;;;;;5045456;28;20053;-74
2021/12/05 11:19:26;;;;;;;29.35;17.65;;;4.90;99.90;;;;;;5039044;28;20199;-75
2021/12/05 11:22:03;;;;;;;33.90;16.23;;;4.90;99.90;;;;;;5038470;28;20072;-75
2021/12/05 11:24:50;;;;;;;35.10;16.73;;;4.90;99.90;;;;;;5043754;28;20045;-75
2021/12/05 11:27:15;;;;;;;22.52;14.93;;;4.90;99.90;;;;;;5042268;28;20044;-75
2021/12/05 11:30:02;;;;;;;27.30;14.93;;;4.90;99.90;;;;;;5048134;28;20536;-75
2021/12/05 11:32:38;;;;;;;28.67;15.27;;;4.90;99.90;;;;;;5047520;28;20052;-75
2021/12/05 11:35:25;;;;;;;23.75;15.90;;;4.90;99.90;;;;;;5050147;28;20053;-75
2021/12/05 11:37:53;;;;;;;26.60;17.10;;;5.00;99.90;;;;;;5051468;28;20049;-75
2021/12/05 11:40:20;;;;;;;31.37;17.37;;;5.00;99.90;;;;;;5054797;28;20040;-75
2021/12/05 11:43:13;;;;;;;24.17;15.77;;;5.00;99.90;;;;;;5060271;28;20049;-75
2021/12/05 11:45:58;;;;;;;22.45;15.32;;;5.00;99.90;;;;;;5047189;28;20061;-75
2021/12/05 11:48:31;;;;;;;23.95;15.30;;;5.00;99.90;;;;;;5049759;28;20111;-75
2021/12/05 11:50:59;;;;;;;25.85;16.17;;;5.00;99.90;;;;;;5048314;28;20090;-74
2021/12/05 11:53:37;;;;;;;29.33;15.23;;;5.00;99.90;;;;;;5041559;28;20502;-74
2021/12/05 11:56:03;;;;;;;30.25;16.35;;;5.00;99.90;;;;;;5049014;28;20040;-74
2021/12/05 11:58:29;;;;;;;22.83;15.88;;;5.00;99.90;;;;;;5049873;28;20048;-75
2021/12/05 12:01:08;;;;;;;36.65;18.65;;;5.00;99.90;;;;;;5057802;28;20044;-75
2021/12/05 12:03:36;;;;;;;30.80;16.30;;;5.00;99.90;;;;;;5049114;28;20130;-74
2021/12/05 12:06:02;;;;;;;27.00;16.15;;;5.00;99.90;;;;;;5049392;28;20163;-74
2021/12/05 12:08:28;;;;;;;24.75;17.15;;;5.00;99.90;;;;;;5049390;28;20040;-74
2021/12/05 12:11:00;;;;;;;23.73;16.25;;;5.10;99.90;;;;;;5049698;28;20041;-74
2021/12/05 12:13:38;;;;;;;26.38;17.02;;;5.10;99.90;;;;;;5047722;28;20045;-74
2021/12/05 12:16:07;;;;;;;26.05;15.98;;;5.10;99.90;;;;;;5050721;28;20525;-74
2021/12/05 12:18:39;;;;;;;24.67;16.08;;;5.10;99.90;;;;;;5049909;28;20048;-74
2021/12/05 12:21:18;;;;;;;30.50;18.67;;;5.20;99.90;;;;;;5049047;28;20051;-74
2021/12/05 12:23:47;;;;;;;27.00;17.67;;;5.20;99.90;;;;;;5052494;28;20053;-74
2021/12/05 12:26:12;;;;;;;29.30;18.48;;;5.20;99.90;;;;;;5055229;28;20045;-74
2021/12/05 12:28:39;;;;;;;27.88;17.20;;;5.20;99.90;;;;;;5049571;28;20413;-74
2021/12/05 12:31:28;;;;;;;29.77;17.88;;;5.30;99.90;;;;;;5047305;28;20045;-74
2021/12/05 12:33:56;;;;;;;30.75;17.58;;;5.30;99.90;;;;;;5050763;28;20091;-74
2021/12/05 12:36:34;;;;;;;;;;;5.40;99.90;;;;;;5049465;28;20124;-74
2021/12/05 12:39:04;;;;;;;33.80;20.08;;;5.40;99.90;;;;;;5048102;28;19947;-74
2021/12/05 12:41:32;;;;;;;23.83;15.93;;;5.40;99.90;;;;;;5049128;28;20151;-74
2021/12/05 12:44:05;;;;;;;27.90;16.90;;;5.40;99.90;;;;;;5054365;28;20052;-73
2021/12/05 12:46:36;;;;;;;23.98;16.52;;;5.40;99.90;;;;;;5048809;28;20141;-73
2021/12/05 12:49:14;;;;;;;25.83;18.02;;;5.40;99.90;;;;;;5045917;28;20508;-73
2021/12/05 12:52:15;;;;;;;22.73;16.25;;;5.40;99.90;;;;;;5042901;28;20045;-74
2021/12/05 12:54:55;;;;;;;27.30;17.25;;;5.50;99.90;;;;;;5047643;28;20506;-74
2021/12/05 12:57:29;;;;;;;35.70;16.50;;;5.50;99.90;;;;;;5049492;28;20064;-73
2021/12/05 13:00:10;;;;;;;27.35;15.63;;;5.50;99.90;;;;;;5033489;28;20049;-73
2021/12/05 13:11:19;;;;;;;25.60;16.63;;;5.50;99.90;;;;;;5050419;28;20111;-74
2021/12/05 13:13:57;;;;;;;23.23;15.77;;;5.60;99.90;;;;;;5056184;28;20052;-73
2021/12/05 13:16:26;;;;;;;27.45;16.77;;;5.60;99.90;;;;;;5055289;28;20045;-73
2021/12/05 13:19:10;;;;;;;23.23;15.52;;;5.60;99.90;;;;;;5055719;28;20049;-73
2021/12/05 13:21:42;;;;;;;26.35;15.68;;;5.60;99.90;;;;;;5041892;28;20130;-73
2021/12/05 13:24:42;;;;;;;24.70;16.50;;;5.60;99.90;;;;;;5045515;28;20107;-73
2021/12/05 13:27:23;;;;;;;25.85;16.38;;;5.60;99.90;;;;;;5046402;28;20033;-73
2021/12/05 13:29:51;;;;;;;30.83;15.15;;;5.60;99.90;;;;;;5048952;28;20033;-73
2021/12/05 13:32:25;;;;;;;35.78;16.38;;;5.60;99.90;;;;;;5052115;28;20048;-73
2021/12/05 13:34:59;;;;;;;20.70;15.35;;;5.60;99.90;;;;;;5043402;28;20593;-73
2021/12/05 13:37:32;;;;;;;19.73;14.68;;;5.60;99.90;;;;;;5043709;28;20052;-73
2021/12/05 13:40:18;;;;;;;19.05;14.60;;;5.60;99.90;;;;;;5051441;28;20045;-73
2021/12/05 13:43:05;;;;;;;31.58;14.80;;;5.60;99.90;;;;;;5054919;28;20079;-73
2021/12/05 13:45:43;;;;;;;26.23;15.15;;;5.70;99.90;;;;;;5051335;28;20384;-73
2021/12/05 13:48:17;;;;;;;25.88;15.50;;;5.60;99.90;;;;;;5041553;28;20089;-73
2021/12/05 13:50:49;;;;;;;28.00;16.10;;;5.60;99.90;;;;;;5047852;28;20076;-73
2021/12/05 13:53:28;;;;;;;24.88;14.48;;;5.60;99.90;;;;;;5045492;28;20052;-73
2021/12/05 13:55:54;;;;;;;23.38;15.75;;;5.60;99.90;;;;;;5045578;28;20055;-73
2021/12/05 13:58:19;;;;;;;33.95;17.65;;;5.50;99.90;;;;;;5048487;28;20037;-73
2021/12/05 14:01:07;;;;;;;27.52;15.98;;;5.50;99.90;;;;;;5047437;28;20047;-73
2021/12/05 14:03:46;;;;;;;34.25;16.73;;;5.50;99.90;;;;;;5046586;28;20112;-73
2021/12/05 14:06:53;;;;;;;23.30;15.25;;;5.50;99.90;;;;;;5053064;28;20116;-73
2021/12/05 14:09:33;;;;;;;20.90;15.95;;;5.50;99.90;;;;;;5040499;28;20045;-72
2021/12/05 14:12:19;;;;;;;22.83;15.05;;;5.50;99.90;;;;;;5046227;28;20051;-72
2021/12/05 14:14:46;;;;;;;25.65;17.10;;;5.40;99.90;;;;;;5043775;28;20048;-73
2021/12/05 14:17:19;;;;;;;24.55;16.13;;;5.40;99.90;;;;;;5053698;28;20060;-73
2021/12/05 14:19:52;;;;;;;25.50;16.20;;;5.40;99.90;;;;;;5048347;28;20049;-73
2021/12/05 14:22:21;;;;;;;19.75;14.68;;;5.40;99.90;;;;;;5052501;28;20040;-73
2021/12/05 14:24:49;;;;;;;34.88;15.55;;;5.30;99.90;;;;;;5056670;28;20048;-72
2021/12/05 14:27:19;;;;;;;30.42;17.38;;;5.30;99.90;;;;;;5045946;28;20056;-73
2021/12/05 14:29:47;;;;;;;23.65;16.85;;;5.30;99.90;;;;;;5061285;28;20085;-73
2021/12/05 14:32:21;;;;;;;23.67;15.98;;;5.30;99.90;;;;;;5047441;28;20052;-73
2021/12/05 14:35:09;;;;;;;28.23;20.23;;;5.20;99.90;;;;;;5045683;28;20045;-73
2021/12/05 14:37:37;;;;;;;30.77;19.98;;;5.20;99.90;;;;;;5051208;28;20755;-73
2021/12/05 14:40:30;;;;;;;41.13;22.33;;;5.20;99.90;;;;;;5047331;28;20045;-73
2021/12/05 14:42:59;;;;;;;37.95;22.33;;;5.20;99.90;;;;;;5043533;28;20124;-73
2021/12/05 14:45:29;;;;;;;34.78;23.55;;;5.20;99.90;;;;;;5052852;28;20075;-73
2021/12/05 14:48:02;;;;;;;38.08;22.63;;;5.20;99.90;;;;;;5046012;28;20052;-73
2021/12/05 14:50:32;;;;;;;34.35;23.05;;;5.20;99.90;;;;;;5050718;28;20041;-73
2021/12/05 14:53:05;;;;;;;35.85;21.83;;;5.10;99.90;;;;;;5040280;28;20081;-73
2021/12/05 14:55:35;;;;;;;37.45;22.25;;;5.10;99.90;;;;;;5046370;28;20071;-73
2021/12/05 14:58:07;;;;;;;37.70;22.77;;;5.20;99.90;;;;;;5048472;28;20087;-73
2021/12/05 15:00:39;;;;;;;32.03;21.83;;;5.10;99.90;;;;;;5047337;28;20136;-73
2021/12/05 15:03:06;;;;;;;40.08;22.30;;;5.10;99.90;;;;;;5041734;28;20049;-72
2021/12/05 15:05:34;;;;;;;44.80;23.20;;;5.10;99.90;;;;;;5050468;28;20045;-72
2021/12/05 15:08:04;;;;;;;32.13;20.63;;;5.10;99.90;;;;;;5049564;28;20051;-73
2021/12/05 15:10:30;;;;;;;36.78;22.02;;;5.10;99.90;;;;;;5051283;28;20033;-73
2021/12/05 15:12:56;;;;;;;34.95;21.83;;;5.10;99.90;;;;;;5055595;28;20100;-73
2021/12/05 15:15:24;;;;;;;33.53;22.58;;;5.10;99.90;;;;;;5048881;28;20041;-73
2021/12/05 15:17:50;;;;;;;34.08;21.42;;;5.10;99.90;;;;;;5051492;28;20486;-73
2021/12/05 15:20:19;;;;;;;41.63;22.20;;;5.00;99.90;;;;;;5055201;28;20051;-73
2021/12/05 15:22:51;;;;;;;35.78;23.17;;;5.00;99.90;;;;;;5056550;28;20052;-73
2021/12/05 15:25:21;;;;;;;36.95;21.98;;;5.00;99.90;;;;;;5059687;28;20037;-73
2021/12/05 15:27:47;;;;;;;31.95;22.20;;;5.00;99.90;;;;;;5049590;28;20132;-73
2021/12/05 15:30:20;;;;;;;34.08;23.05;;;5.00;99.90;;;;;;5051748;28;20354;-73
2021/12/05 15:32:55;;;;;;;31.33;20.15;;;5.00;99.90;;;;;;5049429;28;20091;-73
2021/12/05 15:35:22;;;;;;;35.42;20.48;;;4.90;99.90;;;;;;5060398;28;20081;-73
2021/12/05 15:37:51;;;;;;;31.73;21.52;;;4.90;99.90;;;;;;5045160;28;20056;-74
2021/12/05 15:40:17;;;;;;;30.48;21.63;;;4.90;99.90;;;;;;5056717;28;20131;-73
2021/12/05 15:42:44;;;;;;;37.50;22.13;;;4.90;99.90;;;;;;5052686;28;20049;-73
2021/12/05 15:45:13;;;;;;;36.72;20.20;;;4.80;99.90;;;;;;5040156;28;20048;-73
2021/12/05 15:47:43;;;;;;;44.42;23.25;;;4.80;99.90;;;;;;5056568;28;20049;-73
2021/12/05 15:50:41;;;;;;;37.70;21.52;;;4.80;99.90;;;;;;5055716;28;20103;-73
2021/12/05 15:53:13;;;;;;;33.17;22.03;;;4.80;99.90;;;;;;5047841;28;20057;-73
2021/12/05 15:55:44;;;;;;;35.72;23.30;;;4.80;99.90;;;;;;5051316;28;20053;-74
2021/12/05 15:58:20;;;;;;;32.70;21.70;;;4.80;99.90;;;;;;5064595;28;20124;-73
2021/12/05 16:00:52;;;;;;;41.33;23.95;;;4.80;99.90;;;;;;5047815;28;20167;-74
2021/12/05 16:03:25;;;;;;;43.42;25.70;;;4.70;99.90;;;;;;5048455;28;20497;-74
2021/12/05 16:05:58;;;;;;;40.60;24.98;;;4.70;99.90;;;;;;5061694;28;20463;-74
2021/12/05 16:08:28;;;;;;;40.17;23.05;;;4.80;99.90;;;;;;5048946;28;20150;-74
2021/12/05 16:10:57;;;;;;;43.35;23.95;;;4.70;99.90;;;;;;5060860;28;20056;-74
2021/12/05 16:13:29;;;;;;;41.90;25.13;;;4.70;99.90;;;;;;5060045;28;20077;-72
2021/12/05 16:16:05;;;;;;;47.83;25.33;;;4.70;99.90;;;;;;5039587;28;20054;-73
2021/12/05 16:18:34;;;;;;;38.20;22.60;;;4.70;99.90;;;;;;5056275;28;20049;-74
2021/12/05 16:21:05;;;;;;;39.65;23.73;;;4.70;99.90;;;;;;5043870;28;20048;-73
2021/12/05 16:23:40;;;;;;;37.47;23.10;;;4.70;99.90;;;;;;5049323;28;20095;-74
2021/12/05 16:26:12;;;;;;;36.33;23.23;;;4.70;99.90;;;;;;5048164;28;20033;-74
2021/12/05 16:28:46;;;;;;;37.85;23.42;;;4.70;99.90;;;;;;5041947;28;20048;-74
2021/12/05 16:31:22;;;;;;;42.42;24.17;;;4.70;99.90;;;;;;5049328;28;20047;-74
2021/12/05 16:33:54;;;;;;;40.33;23.25;;;4.70;99.90;;;;;;5049597;28;20056;-75
2021/12/05 16:36:21;;;;;;;38.05;24.27;;;4.60;99.90;;;;;;5042736;28;20049;-74
2021/12/05 16:38:50;;;;;;;37.85;26.15;;;4.60;99.90;;;;;;5061217;28;20056;-74
2021/12/05 16:41:28;;;;;;;49.80;25.88;;;4.60;99.90;;;;;;5047169;28;20053;-74
2021/12/05 16:43:58;;;;;;;46.95;25.52;;;4.70;99.90;;;;;;5041171;28;20509;-74
2021/12/05 16:46:33;;;;;;;37.10;26.38;;;4.60;99.90;;;;;;5047188;28;20045;-74
2021/12/05 16:49:03;;;;;;;49.17;27.38;;;4.60;99.90;;;;;;5063098;28;20052;-74
2021/12/05 16:51:34;;;;;;;56.08;28.52;;;4.60;99.90;;;;;;5055344;28;20052;-74
2021/12/05 16:54:17;;;;;;;51.20;28.27;;;4.60;99.90;;;;;;5053581;28;21010;-74
2021/12/05 16:56:49;;;;;;;61.72;31.60;;;4.60;99.90;;;;;;5047381;28;20147;-74
2021/12/05 16:59:25;;;;;;;49.72;30.38;;;4.60;99.90;;;;;;5050637;28;20053;-74
2021/12/05 17:02:30;;;;;;;53.88;29.45;;;4.60;99.90;;;;;;5050655;28;20049;-74
2021/12/05 17:05:03;;;;;;;54.50;30.02;;;4.60;99.90;;;;;;5054346;28;21818;-74
2021/12/05 17:07:44;;;;;;;55.58;29.85;;;4.60;99.90;;;;;;5049497;28;20452;-74
2021/12/05 17:10:25;;;;;;;57.25;32.78;;;4.60;99.90;;;;;;5059286;28;20124;-74
2021/12/05 17:12:57;;;;;;;62.75;33.08;;;4.60;99.90;;;;;;5045504;28;20057;-74
2021/12/05 17:15:27;;;;;;;52.92;32.63;;;4.60;99.90;;;;;;5046919;28;20049;-74
2021/12/05 17:18:01;;;;;;;56.60;34.20;;;4.60;99.90;;;;;;5052928;28;20037;-74
2021/12/05 17:20:31;;;;;;;65.88;36.65;;;4.60;99.90;;;;;;5048534;28;20046;-75
2021/12/05 17:23:22;;;;;;;62.40;34.35;;;4.60;99.90;;;;;;5050748;28;20103;-74
2021/12/05 17:25:52;;;;;;;66.95;37.20;;;4.60;99.90;;;;;;5050646;28;20041;-74
2021/12/05 17:28:40;;;;;;;69.00;38.17;;;4.60;99.90;;;;;;5050823;28;20041;-74
2021/12/05 17:31:07;;;;;;;;;;;4.60;99.90;;;;;;5057370;28;20076;-74
2021/12/05 17:33:43;;;;;;;74.78;39.22;;;4.50;99.90;;;;;;5047370;28;20468;-74
2021/12/05 17:36:36;;;;;;;70.13;38.67;;;4.50;99.90;;;;;;5047155;28;20052;-74
2021/12/05 17:39:07;;;;;;;73.50;39.08;;;4.50;99.90;;;;;;5036004;28;20150;-74
2021/12/05 17:41:33;;;;;;;76.85;40.17;;;4.50;99.90;;;;;;5049150;28;20502;-74
2021/12/05 17:44:01;;;;;;;78.75;39.70;;;4.50;99.90;;;;;;5049661;28;20146;-74
2021/12/05 17:46:30;;;;;;;69.25;40.25;;;4.50;99.90;;;;;;5050249;28;20512;-75
2021/12/05 17:48:56;;;;;;;;;;;4.50;99.90;;;;;;5061697;28;20123;-74
2021/12/05 17:51:27;;;;;;;75.47;41.97;;;4.50;99.90;;;;;;5051893;28;20040;-74
2021/12/05 17:53:55;;;;;;;76.13;41.03;;;4.50;99.90;;;;;;5056381;28;20456;-74
2021/12/05 17:56:37;;;;;;;;;;;4.60;99.90;;;;;;5049549;28;20111;-74
2021/12/05 17:59:12;;;;;;;81.28;43.00;;;4.60;99.90;;;;;;5050447;28;20271;-74
2021/12/05 18:04:23;;;;;;;76.03;42.88;;;4.50;99.90;;;;;;5045860;28;20072;-74
2021/12/05 18:06:49;;;;;;;75.32;42.13;;;4.50;99.90;;;;;;5048366;28;20134;-74
2021/12/05 18:09:15;;;;;;;69.63;41.55;;;4.50;99.90;;;;;;5045856;28;20117;-74
2021/12/05 18:11:41;;;;;;;70.07;39.83;;;4.50;99.90;;;;;;5044261;28;20120;-74
2021/12/05 18:14:07;;;;;;;72.88;42.33;;;4.50;99.90;;;;;;5047715;28;20051;-74
2021/12/05 18:16:33;;;;;;;69.10;41.88;;;4.50;99.90;;;;;;5045470;28;20056;-74
2021/12/05 18:19:05;;;;;;;69.15;42.33;;;4.50;99.90;;;;;;5048976;28;20508;-73
2021/12/05 18:21:32;;;;;;;75.68;43.20;;;4.50;99.90;;;;;;5048216;28;20060;-73
2021/12/05 18:23:58;;;;;;;88.18;42.13;;;4.50;99.90;;;;;;5048492;28;20048;-73
2021/12/05 18:26:25;;;;;;;73.53;44.88;;;4.40;99.90;;;;;;5047092;28;20068;-74
2021/12/05 18:28:52;;;;;;;70.68;41.15;;;4.40;99.90;;;;;;5047301;28;20045;-74
2021/12/05 18:31:22;;;;;;;75.28;43.22;;;4.40;99.90;;;;;;5041677;28;20148;-74
2021/12/05 18:33:52;;;;;;;67.38;39.97;;;4.40;99.90;;;;;;5047211;28;20045;-73